Time;durP1;ratioP1;P1;durP2;ratioP2;P2;SDS_P1;SDS_P2;PMS_P1;PMS_P2;Temp;Humidity;BMP_temperature;BMP_pressure;BME280_temperature;BME280_humidity;BME280_pressure;Samples;Min_cycle;Max_cycle;Signal;HPM_P1;HPM_P2
2023/01/14 00:01:25;;;;;;;25.20;5.85;;;;;;;5.72;99.00;101440.13;5035405;28;20036;-83
2023/01/14 00:03:52;;;;;;;27.75;6.35;;;;;;;5.66;99.39;101439.47;5040702;28;20494;-83
2023/01/14 00:06:25;;;;;;;26.60;6.93;;;;;;;5.65;99.41;101444.75;5030970;28;20120;-83
2023/01/14 00:08:55;;;;;;;24.05;5.45;;;;;;;5.60;99.55;101446.69;5030381;28;20982;-80
2023/01/14 00:14:05;;;;;;;23.35;5.65;;;;;;;5.53;99.42;101448.72;5029362;28;20401;-83
2023/01/14 00:16:30;;;;;;;26.15;6.00;;;;;;;5.53;100.00;101451.34;5035355;28;20033;-83
2023/01/14 00:18:56;;;;;;;21.85;6.22;;;;;;;5.49;100.00;101446.31;5051600;28;20127;-83
2023/01/14 00:21:21;;;;;;;25.65;6.13;;;;;;;5.46;100.00;101449.06;5050591;28;20033;-84
2023/01/14 00:23:47;;;;;;;22.50;5.43;;;;;;;5.44;100.00;101446.53;5035150;28;20049;-83
2023/01/14 00:26:16;;;;;;;25.90;5.88;;;;;;;5.43;100.00;101447.44;5035740;28;20049;-83
2023/01/14 00:28:45;;;;;;;27.48;5.82;;;;;;;5.38;100.00;101444.19;5013340;28;20041;-84
2023/01/14 00:31:14;;;;;;;24.00;5.70;;;;;;;5.39;100.00;101439.81;5030604;28;20029;-83
2023/01/14 00:33:41;;;;;;;32.40;7.03;;;;;;;5.39;100.00;101439.81;5050876;28;20032;-83
2023/01/14 00:36:12;;;;;;;33.15;7.47;;;;;;;5.39;100.00;101429.38;5049478;28;20041;-83
2023/01/14 00:38:38;;;;;;;29.77;6.75;;;;;;;5.38;100.00;101432.91;5023505;28;20037;-83
2023/01/14 00:41:06;;;;;;;29.98;6.93;;;;;;;5.35;100.00;101420.84;5020973;28;20030;-83
2023/01/14 00:43:32;;;;;;;25.30;6.60;;;;;;;5.33;100.00;101430.50;5030556;28;20034;-83
2023/01/14 00:46:00;;;;;;;32.25;7.13;;;;;;;5.34;100.00;101443.47;5028127;28;20560;-84
2023/01/14 00:48:26;;;;;;;25.35;6.32;;;;;;;5.35;100.00;101446.91;5014679;28;20437;-84
2023/01/14 00:50:57;;;;;;;40.72;8.30;;;;;;;5.36;100.00;101446.00;5028474;28;20046;-84
2023/01/14 00:53:23;;;;;;;39.57;8.13;;;;;;;5.35;100.00;101445.16;5027069;28;20284;-85
2023/01/14 00:55:48;;;;;;;27.88;6.60;;;;;;;5.36;100.00;101456.44;5037104;28;20041;-84
2023/01/14 00:58:14;;;;;;;34.53;7.85;;;;;;;5.35;100.00;101444.31;5030479;28;20041;-84
2023/01/14 01:00:39;;;;;;;39.35;8.20;;;;;;;5.35;100.00;101445.16;5028818;28;20038;-84
2023/01/14 01:03:05;;;;;;;30.40;7.85;;;;;;;5.34;100.00;101447.84;5010587;28;20485;-84
2023/01/14 01:05:36;;;;;;;39.80;8.23;;;;;;;5.32;100.00;101449.66;5021151;28;20039;-85
2023/01/14 01:08:06;;;;;;;36.50;8.10;;;;;;;5.30;100.00;101456.72;5034847;28;20029;-83
2023/01/14 01:10:34;;;;;;;36.75;8.32;;;;;;;5.30;100.00;101454.09;5010831;28;20517;-83
2023/01/14 01:13:00;;;;;;;36.90;8.18;;;;;;;5.29;100.00;101450.66;5044466;28;20498;-83
2023/01/14 01:15:26;;;;;;;40.05;8.70;;;;;;;5.25;100.00;101456.06;5029977;28;20033;-80
2023/01/14 01:17:51;;;;;;;39.25;7.65;;;;;;;5.24;100.00;101451.75;5029774;28;20096;-80
2023/01/14 01:20:19;;;;;;;37.00;8.65;;;;;;;5.21;100.00;101451.88;5029762;28;20060;-80
2023/01/14 01:22:45;;;;;;;39.55;7.75;;;;;;;5.20;100.00;101451.03;5025051;28;20035;-82
2023/01/14 01:25:11;;;;;;;45.58;8.75;;;;;;;5.20;100.00;101442.34;5034856;28;20032;-83
2023/01/14 01:27:36;;;;;;;38.85;7.53;;;;;;;5.19;100.00;101443.25;5015009;28;20069;-84
2023/01/14 01:30:05;;;;;;;37.40;8.23;;;;;;;5.16;100.00;101448.59;5048211;28;20041;-83
2023/01/14 01:32:30;;;;;;;38.58;7.72;;;;;;;5.16;100.00;101446.00;5049054;28;20068;-83
2023/01/14 01:34:55;;;;;;;43.28;8.38;;;;;;;5.18;100.00;101446.78;5025983;28;20109;-83
2023/01/14 01:37:26;;;;;;;39.28;8.63;;;;;;;5.18;100.00;101446.78;5008587;28;20033;-84
2023/01/14 01:39:51;;;;;;;40.92;9.05;;;;;;;5.17;100.00;101438.09;5032129;28;20572;-80
2023/01/14 01:42:19;;;;;;;41.53;8.43;;;;;;;5.15;100.00;101441.69;5048989;28;20047;-84
2023/01/14 01:45:30;;;;;;;40.30;8.38;;;;;;;5.13;100.00;101443.50;5032215;28;20064;-84
2023/01/14 01:48:33;;;;;;;39.13;7.60;;;;;;;5.14;100.00;101445.19;5028974;28;20041;-84
2023/01/14 01:51:21;;;;;;;;;;;;;;;;;;;;;
2023/01/14 01:53:52;;;;;;;43.20;8.68;;;;;;;5.10;100.00;101438.41;5023209;28;20316;-83
2023/01/14 01:56:28;;;;;;;51.78;9.65;;;;;;;5.09;100.00;101447.16;5009409;28;20033;-82
2023/01/14 01:58:58;;;;;;;41.42;8.63;;;;;;;5.08;100.00;101448.06;5023994;28;20610;-83
2023/01/14 02:01:24;;;;;;;37.60;8.48;;;;;;;5.07;100.00;101443.78;5010173;28;20045;-84
2023/01/14 02:03:50;;;;;;;47.72;8.90;;;;;;;5.04;100.00;101437.78;5008544;28;20061;-83
2023/01/14 02:06:23;;;;;;;41.65;8.88;;;;;;;5.02;100.00;101439.59;5023709;28;20411;-83
2023/01/14 02:08:51;;;;;;;43.50;8.48;;;;;;;5.04;100.00;101429.94;5003759;28;20037;-84
2023/01/14 02:11:31;;;;;;;40.45;8.50;;;;;;;5.03;100.00;101430.84;5009194;28;20132;-84
2023/01/14 02:14:00;;;;;;;45.33;9.23;;;;;;;5.01;100.00;101419.66;5006326;28;20390;-84
2023/01/14 02:16:41;;;;;;;40.40;8.38;;;;;;;5.00;100.00;101412.72;4988353;28;20484;-83
2023/01/14 02:19:51;;;;;;;34.83;7.95;;;;;;;4.98;100.00;101404.13;4990564;28;20100;-84
2023/01/14 02:22:50;;;;;;;45.33;8.57;;;;;;;4.95;100.00;101393.81;5007084;28;20045;-84
2023/01/14 02:25:40;;;;;;;39.80;8.90;;;;;;;4.88;100.00;101387.19;5004512;28;20030;-80
2023/01/14 02:28:59;;;;;;;44.95;8.43;;;;;;;4.90;100.00;101384.50;5017085;28;20069;-84
2023/01/14 02:31:41;;;;;;;45.88;8.35;;;;;;;4.85;100.00;101371.66;5009133;28;20040;-83
2023/01/14 02:34:44;;;;;;;47.03;9.37;;;;;;;4.87;100.00;101364.63;5009797;28;20041;-84
2023/01/14 02:37:43;;;;;;;49.63;9.38;;;;;;;4.84;100.00;101349.13;5007473;28;20046;-84
2023/01/14 02:40:20;;;;;;;37.03;7.80;;;;;;;4.82;100.00;101353.56;5006511;28;20677;-80
2023/01/14 02:46:17;;;;;;;41.70;8.90;;;;;;;4.78;100.00;101343.28;4997528;28;20057;-83
2023/01/14 02:48:46;;;;;;;41.45;8.10;;;;;;;4.75;100.00;101343.41;5010996;28;20034;-84
2023/01/14 02:51:13;;;;;;;49.25;9.23;;;;;;;4.76;100.00;101334.69;5039231;28;20036;-83
2023/01/14 02:53:44;;;;;;;44.72;8.95;;;;;;;4.74;100.00;101337.34;5038333;28;20121;-84
2023/01/14 02:56:11;;;;;;;38.15;8.18;;;;;;;4.76;100.00;101334.69;5040204;28;20058;-79
2023/01/14 03:01:59;;;;;;;39.75;7.68;;;;;;;4.78;100.00;101328.50;5008177;28;20037;-83
2023/01/14 03:04:55;;;;;;;42.08;8.50;;;;;;;4.80;100.00;101342.31;5009058;28;20037;-84
2023/01/14 03:07:35;;;;;;;53.42;9.02;;;;;;;4.79;100.00;101326.72;5021026;28;20041;-84
2023/01/14 03:10:21;;;;;;;47.50;8.73;;;;;;;4.78;100.00;101327.66;5028341;28;20433;-84
2023/01/14 03:13:29;;;;;;;43.80;8.80;;;;;;;4.81;100.00;101325.78;5009880;28;20071;-83
2023/01/14 03:16:36;;;;;;;46.80;7.82;;;;;;;4.81;100.00;101311.91;4985539;28;20041;-83
2023/01/14 03:19:12;;;;;;;39.28;8.18;;;;;;;4.82;100.00;101314.44;5040982;28;20052;-84
2023/01/14 03:21:42;;;;;;;41.20;7.80;;;;;;;4.82;100.00;101298.81;5049631;28;20091;-84
2023/01/14 03:24:29;;;;;;;41.22;7.80;;;;;;;4.84;100.00;101307.41;5051987;28;20037;-84
2023/01/14 03:26:59;;;;;;;43.28;8.07;;;;;;;4.86;100.00;101292.53;5052055;28;20075;-84
2023/01/14 03:29:35;;;;;;;38.13;7.65;;;;;;;4.89;100.00;101297.63;5053054;28;20033;-84
2023/01/14 03:32:26;;;;;;;35.65;7.05;;;;;;;4.98;100.00;101294.59;5039264;28;20111;-83
2023/01/14 03:35:17;;;;;;;38.22;7.28;;;;;;;5.00;100.00;101282.34;5042658;28;20041;-83
2023/01/14 03:37:53;;;;;;;37.33;7.38;;;;;;;5.06;100.00;101293.44;5052879;28;20043;-83
2023/01/14 03:40:25;;;;;;;40.70;7.45;;;;;;;5.09;100.00;101294.13;5047196;28;20037;-83
2023/01/14 03:43:00;;;;;;;38.40;7.50;;;;;;;5.10;100.00;101293.22;5033991;28;20517;-84
2023/01/14 03:45:36;;;;;;;37.92;7.70;;;;;;;5.11;100.00;101287.09;5030999;28;20427;-83
2023/01/14 03:48:05;;;;;;;43.70;7.68;;;;;;;5.16;100.00;101281.66;5009479;28;20038;-83
2023/01/14 03:50:53;;;;;;;37.05;7.60;;;;;;;5.18;100.00;101285.91;5012640;28;20391;-84
2023/01/14 03:53:27;;;;;;;33.47;7.03;;;;;;;5.18;100.00;101277.22;5017847;28;20037;-82
2023/01/14 03:56:23;;;;;;;36.08;6.70;;;;;;;5.23;100.00;101257.03;5049498;28;20067;-84
2023/01/14 03:58:58;;;;;;;31.80;6.07;;;;;;;5.21;100.00;101264.06;5041914;28;20116;-82
2023/01/14 04:01:34;;;;;;;36.70;6.95;;;;;;;5.20;100.00;101262.34;5031940;28;20037;-82
2023/01/14 04:04:01;;;;;;;33.08;7.05;;;;;;;5.21;100.00;101261.47;5028494;28;20417;-84
2023/01/14 04:06:27;;;;;;;35.45;6.75;;;;;;;5.22;100.00;101261.41;5030696;28;20432;-82
2023/01/14 04:08:52;;;;;;;35.50;7.15;;;;;;;5.21;100.00;101253.63;5030774;28;20038;-84
2023/01/14 04:11:19;;;;;;;39.88;6.93;;;;;;;5.21;100.00;101248.44;5031007;28;20371;-83
2023/01/14 04:16:38;;;;;;;;;;;;;;;5.26;100.00;101222.97;5031650;28;20409;-83
2023/01/14 04:19:08;;;;;;;38.15;7.47;;;;;;;5.18;100.00;101222.44;5045672;28;19917;-83
2023/01/14 04:21:34;;;;;;;38.08;6.70;;;;;;;5.17;100.00;101220.75;5030209;28;20033;-83
2023/01/14 04:23:59;;;;;;;34.38;7.07;;;;;;;5.16;100.00;101211.25;5034270;28;20481;-83
2023/01/14 04:26:25;;;;;;;38.20;7.00;;;;;;;5.14;100.00;101205.25;5050741;28;20082;-84
2023/01/14 04:28:50;;;;;;;32.22;6.70;;;;;;;5.14;100.00;101195.66;5013082;28;20033;-83
2023/01/14 04:31:16;;;;;;;36.90;6.88;;;;;;;5.15;100.00;101186.06;5035972;28;20044;-83
2023/01/14 04:33:44;;;;;;;33.92;6.68;;;;;;;5.13;100.00;101188.75;5031815;28;20026;-83
2023/01/14 04:36:10;;;;;;;36.75;6.78;;;;;;;5.10;100.00;101183.69;5050829;28;20594;-83
2023/01/14 04:38:35;;;;;;;35.53;7.03;;;;;;;5.13;100.00;101185.31;5030579;28;20041;-84
2023/01/14 04:41:06;;;;;;;33.08;6.38;;;;;;;5.10;100.00;101188.91;5032324;28;20086;-84
2023/01/14 04:43:42;;;;;;;34.03;6.72;;;;;;;5.08;100.00;101179.44;5033315;28;20037;-84
2023/01/14 04:46:07;;;;;;;27.27;5.95;;;;;;;5.06;100.00;101181.28;5050026;28;20041;-84
2023/01/14 04:48:38;;;;;;;35.65;6.38;;;;;;;5.07;100.00;101180.38;5050837;28;20029;-84
2023/01/14 04:51:04;;;;;;;30.30;5.88;;;;;;;5.04;100.00;101177.00;5046780;28;20382;-84
2023/01/14 04:53:29;;;;;;;37.95;7.25;;;;;;;5.02;100.00;101176.22;5031362;28;20113;-84
2023/01/14 04:55:57;;;;;;;34.05;6.72;;;;;;;5.02;100.00;101168.38;5007370;28;20501;-84
2023/01/14 04:58:23;;;;;;;38.17;7.28;;;;;;;5.01;100.00;101171.91;5030244;28;20452;-84
2023/01/14 05:00:50;;;;;;;36.35;7.32;;;;;;;5.01;100.00;101164.09;5031370;28;20125;-83
2023/01/14 05:03:31;;;;;;;36.63;6.97;;;;;;;5.01;100.00;101161.47;5045745;28;20440;-83
2023/01/14 05:05:57;;;;;;;31.58;7.22;;;;;;;5.03;100.00;101151.81;5048508;28;20047;-83
2023/01/14 05:08:22;;;;;;;33.65;6.80;;;;;;;5.03;100.00;101145.78;5013190;28;20037;-79
2023/01/14 05:10:51;;;;;;;34.03;6.57;;;;;;;5.01;100.00;101148.44;5030562;28;20040;-79
2023/01/14 05:13:16;;;;;;;28.95;6.22;;;;;;;5.04;100.00;101142.25;5010341;28;20030;-80
2023/01/14 05:15:46;;;;;;;38.22;6.82;;;;;;;5.02;100.00;101136.25;5009681;28;20034;-83
2023/01/14 05:18:14;;;;;;;29.67;6.28;;;;;;;5.03;100.00;101140.56;5029195;28;20033;-83
2023/01/14 05:20:41;;;;;;;28.75;5.95;;;;;;;5.04;100.00;101127.44;5029106;28;20474;-83
2023/01/14 05:23:14;;;;;;;29.55;6.35;;;;;;;5.06;100.00;101123.91;5029359;28;20041;-83
2023/01/14 05:25:40;;;;;;;29.45;6.43;;;;;;;5.06;100.00;101108.28;5029657;28;20037;-83
2023/01/14 05:28:09;;;;;;;26.33;5.97;;;;;;;5.07;100.00;101110.81;5042510;28;20025;-83
2023/01/14 05:30:37;;;;;;;38.90;7.07;;;;;;;5.08;100.00;101094.25;5011504;28;20072;-84
2023/01/14 05:33:05;;;;;;;27.30;5.45;;;;;;;5.13;100.00;101088.81;5008875;28;20083;-83
2023/01/14 05:35:32;;;;;;;34.05;6.78;;;;;;;5.15;100.00;101081.75;5012004;28;20485;-83
2023/01/14 05:37:57;;;;;;;25.77;5.43;;;;;;;5.16;100.00;101066.03;5029599;28;20497;-84
2023/01/14 05:40:23;;;;;;;25.20;6.13;;;;;;;5.19;100.00;101065.03;5028687;28;20075;-84
2023/01/14 05:45:47;;;;;;;26.90;5.30;;;;;;;5.22;100.00;101047.50;5029758;28;20401;-83
2023/01/14 05:48:13;;;;;;;28.02;5.82;;;;;;;5.25;100.00;101042.13;5019025;28;20043;-84
2023/01/14 05:50:40;;;;;;;27.33;5.13;;;;;;;5.26;100.00;101038.59;5029271;28;20383;-84
2023/01/14 05:53:07;;;;;;;30.92;5.95;;;;;;;5.28;100.00;101035.91;5029298;28;20037;-84
2023/01/14 05:55:42;;;;;;;29.15;5.97;;;;;;;5.31;100.00;101030.56;5010825;28;20481;-83
2023/01/14 05:58:11;;;;;;;30.10;5.82;;;;;;;5.31;100.00;101022.72;5044355;28;20033;-83
2023/01/14 06:06:24;;;;;;;29.40;5.70;;;;;;;5.39;100.00;101014.50;5028953;28;20095;-79
2023/01/14 06:09:00;;;;;;;28.08;5.85;;;;;;;5.41;100.00;101010.91;5009643;28;20128;-84
2023/01/14 06:11:27;;;;;;;27.90;6.07;;;;;;;5.43;100.00;101001.22;5022055;28;20040;-84
2023/01/14 06:13:55;;;;;;;21.38;5.15;;;;;;;5.46;100.00;100995.84;5046722;28;20401;-83
2023/01/14 06:16:21;;;;;;;28.58;5.65;;;;;;;5.47;100.00;100984.50;5032830;28;20033;-83
2023/01/14 06:18:49;;;;;;;31.35;6.40;;;;;;;5.49;100.00;100977.44;5029389;28;20083;-83
2023/01/14 06:21:19;;;;;;;32.22;6.45;;;;;;;5.52;100.00;100968.59;5029151;28;20037;-82
2023/01/14 06:23:45;;;;;;;31.67;6.20;;;;;;;5.54;100.00;100967.59;5041011;28;20044;-83
2023/01/14 06:26:16;;;;;;;26.85;5.10;;;;;;;5.53;100.00;100963.31;5028045;28;20143;-83
2023/01/14 06:28:42;;;;;;;28.90;5.47;;;;;;;5.53;100.00;100952.88;5037334;28;20033;-83
2023/01/14 06:31:12;;;;;;;29.08;6.07;;;;;;;5.53;100.00;100939.81;5043546;28;20532;-83
2023/01/14 06:33:42;;;;;;;35.25;6.60;;;;;;;5.56;100.00;100931.81;5048896;28;20040;-79
2023/01/14 06:36:08;;;;;;;25.02;5.18;;;;;;;5.56;100.00;100934.44;5030212;28;20116;-79
2023/01/14 06:38:34;;;;;;;26.40;6.18;;;;;;;5.58;100.00;100921.31;5047361;28;20037;-84
2023/01/14 06:41:13;;;;;;;26.02;5.45;;;;;;;5.59;100.00;100916.00;5026685;28;20505;-83
2023/01/14 06:43:41;;;;;;;27.45;5.82;;;;;;;5.61;100.00;100919.41;5037602;28;20126;-83
2023/01/14 06:46:11;;;;;;;23.70;5.50;;;;;;;5.63;100.00;100912.34;5045893;28;20067;-82
2023/01/14 06:48:37;;;;;;;29.35;5.88;;;;;;;5.63;100.00;100899.28;5030831;28;20452;-83
2023/01/14 06:51:08;;;;;;;26.70;5.97;;;;;;;5.63;100.00;100895.84;5045210;28;20503;-83
2023/01/14 06:53:34;;;;;;;25.55;5.63;;;;;;;5.63;100.00;100891.47;5021162;28;20029;-83
2023/01/14 06:56:04;;;;;;;22.38;5.10;;;;;;;5.63;100.00;100893.22;5034086;28;20033;-80
2023/01/14 06:58:29;;;;;;;27.10;5.20;;;;;;;5.62;100.00;100881.94;5047484;28;20504;-79
2023/01/14 07:00:58;;;;;;;19.92;4.78;;;;;;;5.63;100.00;100878.41;5038281;28;20037;-83
2023/01/14 07:03:25;;;;;;;23.13;5.00;;;;;;;5.64;100.00;100861.81;5032122;28;20057;-83
2023/01/14 07:05:56;;;;;;;23.65;5.10;;;;;;;5.64;100.00;100864.44;5031972;28;20038;-83
2023/01/14 07:08:22;;;;;;;19.02;4.40;;;;;;;5.65;100.00;100853.06;5032787;28;20038;-83
2023/01/14 07:10:49;;;;;;;21.75;4.90;;;;;;;5.65;100.00;100849.63;5033903;28;20087;-83
2023/01/14 07:13:21;;;;;;;25.73;5.03;;;;;;;5.64;100.00;100835.72;5032432;28;20392;-83
2023/01/14 07:15:47;;;;;;;22.33;5.57;;;;;;;5.65;100.00;100831.34;5039455;28;20060;-83
2023/01/14 07:18:13;;;;;;;21.95;4.88;;;;;;;5.66;100.00;100817.38;5039482;28;20041;-78
2023/01/14 07:20:39;;;;;;;21.42;5.20;;;;;;;5.66;100.00;100799.09;5035755;28;20317;-79
2023/01/14 07:23:08;;;;;;;23.38;5.18;;;;;;;5.66;100.00;100807.78;5043857;28;20433;-79
2023/01/14 07:25:35;;;;;;;21.08;4.28;;;;;;;5.67;100.00;100795.56;5000139;28;20043;-83
2023/01/14 07:28:01;;;;;;;23.55;4.72;;;;;;;5.67;100.00;100787.75;5031518;28;20037;-83
2023/01/14 07:30:27;;;;;;;24.90;5.32;;;;;;;5.70;100.00;100799.78;5031531;28;20147;-83
2023/01/14 07:32:52;;;;;;;20.42;4.65;;;;;;;5.69;100.00;100800.69;5032851;28;20064;-84
2023/01/14 07:35:21;;;;;;;20.92;4.90;;;;;;;5.72;100.00;100795.31;5032045;28;20047;-84
2023/01/14 07:37:47;;;;;;;22.85;5.15;;;;;;;5.72;100.00;100788.31;5032401;28;20041;-80
2023/01/14 07:40:12;;;;;;;19.92;4.80;;;;;;;5.72;100.00;100775.28;5030576;28;20051;-84
2023/01/14 07:42:42;;;;;;;21.90;4.88;;;;;;;5.74;100.00;100762.97;5031959;28;20077;-84
2023/01/14 07:45:08;;;;;;;21.50;4.57;;;;;;;5.75;100.00;100761.22;5030704;28;20209;-82
2023/01/14 07:47:34;;;;;;;23.20;4.95;;;;;;;5.75;100.00;100743.78;5041011;28;20040;-83
2023/01/14 07:49:59;;;;;;;14.98;3.80;;;;;;;5.79;100.00;100739.22;5029635;28;20084;-83
2023/01/14 07:52:25;;;;;;;17.17;4.15;;;;;;;5.80;100.00;100728.69;5031597;28;20048;-83
2023/01/14 07:54:50;;;;;;;17.77;4.35;;;;;;;5.82;100.00;100728.59;5044501;28;20477;-83
2023/01/14 07:57:29;;;;;;;14.02;4.15;;;;;;;5.83;100.00;100714.63;5031225;28;20037;-84
2023/01/14 08:00:01;;;;;;;14.88;4.22;;;;;;;5.84;100.00;100706.72;5015776;28;20111;-84
2023/01/14 08:02:29;;;;;;;16.13;4.78;;;;;;;5.85;100.00;100697.94;5034643;28;20121;-84
2023/01/14 08:04:54;;;;;;;14.25;3.47;;;;;;;5.88;100.00;100689.09;5038522;28;20405;-83
2023/01/14 08:07:23;;;;;;;15.52;4.47;;;;;;;5.87;100.00;100674.34;5029414;28;20155;-83
2023/01/14 08:09:51;;;;;;;16.67;4.50;;;;;;;5.90;100.00;100663.78;5046748;28;20561;-83
2023/01/14 08:12:22;;;;;;;15.48;3.95;;;;;;;5.90;100.00;100656.78;5032178;28;20034;-83
2023/01/14 08:14:54;;;;;;;13.68;3.78;;;;;;;5.93;100.00;100645.31;5031330;28;20053;-83
2023/01/14 08:17:19;;;;;;;13.77;3.38;;;;;;;5.94;100.00;100634.78;5037670;28;20371;-83
2023/01/14 08:19:45;;;;;;;15.43;3.90;;;;;;;5.99;100.00;100639.72;5012440;28;20128;-83
2023/01/14 08:22:20;;;;;;;14.75;3.88;;;;;;;5.99;100.00;100631.91;5027374;28;20041;-82
2023/01/14 08:24:45;;;;;;;16.27;3.28;;;;;;;6.04;100.00;100613.38;5046280;28;20035;-83
2023/01/14 08:27:46;;;;;;;9.65;3.30;;;;;;;6.05;100.00;100604.59;5035465;28;20116;-83
2023/01/14 08:30:12;;;;;;;10.55;3.38;;;;;;;6.09;100.00;100600.88;5028885;28;20041;-84
2023/01/14 08:32:37;;;;;;;13.43;3.10;;;;;;;6.11;100.00;100589.41;5030813;28;20044;-83
2023/01/14 08:35:03;;;;;;;12.25;3.03;;;;;;;6.13;100.00;100576.25;5029549;28;20389;-83
2023/01/14 08:37:30;;;;;;;12.57;3.00;;;;;;;6.15;100.00;100577.84;5031514;28;20494;-83
2023/01/14 08:39:55;;;;;;;12.45;3.05;;;;;;;6.17;100.00;100568.13;5053657;28;20043;-83
2023/01/14 08:42:21;;;;;;;11.20;3.00;;;;;;;6.20;100.00;100556.66;5033870;28;20041;-83
2023/01/14 08:44:46;;;;;;;8.73;2.90;;;;;;;6.22;100.00;100555.63;5031265;28;20038;-83
2023/01/14 08:47:11;;;;;;;13.00;2.75;;;;;;;6.24;100.00;100556.38;5031004;28;20029;-84
2023/01/14 08:49:37;;;;;;;10.25;2.50;;;;;;;6.28;100.00;100539.59;5028776;28;20037;-83
2023/01/14 08:52:05;;;;;;;9.85;2.35;;;;;;;6.32;100.00;100536.78;5009001;28;20503;-85
2023/01/14 08:55:46;;;;;;;;;;;;;;;;;;;;;
2023/01/14 08:58:24;;;;;;;7.70;2.60;;;;;;;6.36;100.00;100501.69;4990788;28;20034;-87
2023/01/14 09:01:24;;;;;;;7.03;2.50;;;;;;;6.36;100.00;100507.75;5009710;28;20096;-85
2023/01/14 09:03:59;;;;;;;9.80;2.70;;;;;;;6.39;100.00;100493.66;4993487;28;20045;-85
2023/01/14 09:06:25;;;;;;;8.70;2.47;;;;;;;6.41;100.00;100486.59;4992830;28;20065;-86
2023/01/14 09:17:25;;;;;;;7.35;2.28;;;;;;;6.49;100.00;100468.66;5001997;28;20100;-79
2023/01/14 09:19:58;;;;;;;10.95;2.72;;;;;;;6.49;100.00;100453.81;5008238;28;20038;-83
2023/01/14 09:22:27;;;;;;;9.73;2.20;;;;;;;6.52;100.00;100452.78;5024713;28;20038;-85
2023/01/14 09:24:52;;;;;;;10.27;2.92;;;;;;;6.56;100.00;100441.19;5011609;28;20034;-86
2023/01/14 09:27:33;;;;;;;9.27;2.42;;;;;;;6.58;100.00;100426.25;5012877;28;20030;-82
2023/01/14 09:29:59;;;;;;;9.57;2.50;;;;;;;6.62;100.00;100417.28;4997144;28;20033;-81
2023/01/14 09:32:24;;;;;;;10.77;2.78;;;;;;;6.65;100.00;100411.84;5026226;28;20132;-83
2023/01/14 09:34:52;;;;;;;11.70;2.63;;;;;;;6.69;100.00;100402.03;5012565;28;20443;-83
2023/01/14 09:37:22;;;;;;;14.75;2.88;;;;;;;6.69;100.00;100405.47;5030796;28;20056;-85
2023/01/14 09:39:49;;;;;;;8.15;2.63;;;;;;;6.72;100.00;100392.19;5018018;28;20084;-85
2023/01/14 09:42:23;;;;;;;8.75;2.42;;;;;;;6.74;100.00;100390.31;5029410;28;20029;-85
2023/01/14 09:45:06;;;;;;;10.95;2.90;;;;;;;6.77;100.00;100377.06;5026578;28;20117;-85
2023/01/14 09:47:31;;;;;;;;;;;;;;;6.83;100.00;100389.75;4992186;28;20041;-85
2023/01/14 09:49:57;;;;;;;10.85;2.92;;;;;;;6.84;100.00;100372.28;5015812;28;19924;-82
2023/01/14 09:52:43;;;;;;;8.70;2.50;;;;;;;6.87;100.00;100367.69;5039804;28;20119;-85
2023/01/14 09:55:45;;;;;;;11.38;3.03;;;;;;;6.89;100.00;100373.66;5041560;28;20496;-83
2023/01/14 09:58:38;;;;;;;11.88;2.60;;;;;;;6.93;100.00;100368.22;5010632;28;20080;-84
2023/01/14 10:01:35;;;;;;;12.55;2.75;;;;;;;6.95;100.00;100354.09;5029322;28;20095;-84
2023/01/14 10:04:00;;;;;;;12.93;2.55;;;;;;;6.97;100.00;100341.75;5020179;28;20030;-84
2023/01/14 10:06:26;;;;;;;13.05;3.10;;;;;;;6.99;100.00;100336.41;5021455;28;20096;-83
2023/01/14 10:09:11;;;;;;;10.80;2.78;;;;;;;7.04;100.00;100331.72;5029573;28;20060;-84
2023/01/14 10:11:42;;;;;;;12.98;2.75;;;;;;;7.06;100.00;100325.44;5011323;28;20037;-84
2023/01/14 10:14:19;;;;;;;15.25;3.17;;;;;;;7.11;100.00;100298.94;5027469;28;20436;-80
2023/01/14 10:16:47;;;;;;;10.65;3.30;;;;;;;7.16;100.00;100283.78;5029341;28;20108;-80
2023/01/14 10:19:36;;;;;;;12.02;2.92;;;;;;;7.18;100.00;100289.75;5028862;28;20418;-83
2023/01/14 10:22:14;;;;;;;10.43;3.03;;;;;;;7.22;100.00;100281.59;5043527;28;20485;-83
2023/01/14 10:24:42;;;;;;;9.15;2.90;;;;;;;7.25;100.00;100270.09;5041425;28;20443;-84
2023/01/14 10:27:16;;;;;;;10.38;2.65;;;;;;;7.29;100.00;100260.25;5039594;28;20025;-83
2023/01/14 10:29:42;;;;;;;14.48;3.40;;;;;;;7.31;100.00;100264.41;5015150;28;20401;-79
2023/01/14 10:32:12;;;;;;;9.85;2.70;;;;;;;7.37;100.00;100255.31;5023031;28;20025;-78
2023/01/14 10:34:41;;;;;;;11.18;2.90;;;;;;;7.43;100.00;100247.00;5035926;28;20040;-79
2023/01/14 10:37:11;;;;;;;8.70;2.90;;;;;;;7.47;100.00;100238.84;5035905;28;20039;-83
2023/01/14 10:39:43;;;;;;;10.05;3.35;;;;;;;7.50;100.00;100225.53;5035891;28;20067;-79
2023/01/14 10:42:12;;;;;;;9.35;2.55;;;;;;;7.52;100.00;100230.66;5033898;28;20029;-79
2023/01/14 10:44:43;;;;;;;8.98;2.60;;;;;;;7.57;100.00;100220.69;5025156;28;20212;-77
2023/01/14 10:47:16;;;;;;;8.35;2.78;;;;;;;7.61;100.00;100213.47;5035464;28;20052;-80
2023/01/14 10:49:47;;;;;;;12.02;3.17;;;;;;;7.63;100.00;100195.88;5035006;28;20057;-85
2023/01/14 10:52:33;;;;;;;9.02;2.97;;;;;;;7.67;100.00;100186.84;5033044;28;20041;-85
2023/01/14 10:55:10;;;;;;;7.10;2.13;;;;;;;7.69;100.00;100174.47;5050354;28;20056;-85
2023/01/14 10:57:57;;;;;;;9.80;2.22;;;;;;;7.74;100.00;100174.97;5030302;28;20116;-85
2023/01/14 11:00:40;;;;;;;8.05;2.10;;;;;;;7.82;100.00;100181.31;5012996;28;20315;-84
2023/01/14 11:03:21;;;;;;;6.40;2.00;;;;;;;7.82;100.00;100155.13;5054497;28;20048;-86
2023/01/14 11:06:04;;;;;;;5.95;1.80;;;;;;;7.85;100.00;100146.22;5031023;28;20417;-86
2023/01/14 11:08:41;;;;;;;6.28;1.90;;;;;;;7.90;100.00;100141.47;5041153;28;20087;-86
2023/01/14 11:11:08;;;;;;;6.47;1.70;;;;;;;7.92;100.00;100126.47;5038154;28;20091;-87
2023/01/14 11:13:59;;;;;;;6.85;1.95;;;;;;;7.95;100.00;100112.31;5056042;28;20036;-86
2023/01/14 11:16:27;;;;;;;8.85;1.75;;;;;;;7.96;100.00;100125.28;5041265;28;20069;-85
2023/01/14 11:18:55;;;;;;;8.95;1.45;;;;;;;7.98;100.00;100106.84;5038825;28;20033;-86
2023/01/14 11:21:27;;;;;;;5.35;1.77;;;;;;;8.01;100.00;100104.84;5046799;28;20041;-86
2023/01/14 11:23:59;;;;;;;4.57;1.60;;;;;;;8.05;100.00;100102.84;5034561;28;20037;-87
2023/01/14 11:26:30;;;;;;;6.55;1.77;;;;;;;8.06;100.00;100102.72;5032872;28;20461;-86
2023/01/14 11:29:25;;;;;;;3.22;1.30;;;;;;;8.09;100.00;100078.06;5048531;28;20033;-85
2023/01/14 11:31:57;;;;;;;4.05;1.50;;;;;;;8.09;100.00;100078.06;5055529;28;20033;-86
2023/01/14 11:34:34;;;;;;;4.57;1.33;;;;;;;8.09;100.00;100076.28;5038728;28;20041;-85
2023/01/14 11:37:20;;;;;;;5.13;1.50;;;;;;;8.11;100.00;100063.91;5056142;28;20068;-79
2023/01/14 11:40:09;;;;;;;5.18;1.30;;;;;;;8.15;100.00;100062.72;5054810;28;20036;-87
2023/01/14 11:42:44;;;;;;;4.18;1.33;;;;;;;8.16;100.00;100064.38;5051211;28;20047;-86
2023/01/14 11:45:12;;;;;;;4.05;1.10;;;;;;;8.19;100.00;100060.69;5052269;28;20116;-80
2023/01/14 11:48:00;;;;;;;3.45;1.20;;;;;;;8.22;100.00;100052.59;5043540;28;20033;-85
2023/01/14 11:50:29;;;;;;;4.75;1.23;;;;;;;8.23;100.00;100048.19;5036391;28;20080;-83
2023/01/14 11:53:06;;;;;;;3.25;1.10;;;;;;;8.25;100.00;100046.28;5027044;28;20042;-84
2023/01/14 11:55:37;;;;;;;3.58;1.10;;;;;;;8.25;100.00;100047.13;5052269;28;20021;-84
2023/01/14 11:58:09;;;;;;;2.53;0.90;;;;;;;8.24;100.00;100034.13;5050334;28;20029;-83
2023/01/14 12:00:37;;;;;;;4.50;0.90;;;;;;;8.26;100.00;100019.94;5027385;28;20064;-85
2023/01/14 12:03:10;;;;;;;2.45;1.00;;;;;;;8.27;100.00;100008.53;5036142;28;20087;-86
2023/01/14 12:05:40;;;;;;;2.95;1.08;;;;;;;8.28;100.00;100009.34;5023826;28;20409;-85
2023/01/14 12:08:15;;;;;;;3.53;1.23;;;;;;;8.28;100.00;100009.34;5030986;28;20033;-85
2023/01/14 12:10:45;;;;;;;4.90;1.02;;;;;;;8.29;100.00;100000.53;5029762;28;20034;-85
2023/01/14 12:19:14;;;;;;;3.13;1.10;;;;;;;8.31;100.00;99965.38;5051299;28;20113;-85
2023/01/14 12:21:49;;;;;;;4.75;1.17;;;;;;;8.31;100.00;99968.00;5014329;28;20045;-85